Meath Environmental Platform

Observations for Trim Patrick St

Time AQI Temp °C Hum % Pres Pa CO μg/m³ H₂S μg/m³ NO μg/m³ NO₂ μg/m³ O₃ μg/m³ SO₂ μg/m³ PM1 μg/m³ PM2.5 μg/m³ PM10 μg/m³
Wednesday 5 August 2026
10:52 2 20.5 55 74,025 0 0 3.25 5.95 61.49 1.7 2.86 7.61 8.37
10:49 2 20.4 55 74,031 0.03 0 3.16 5.61 59.23 1.65 2 6.1 6.71
10:48 2 20.4 56 74,031 0 0 3.14 7.56 63.79 2.45 2 6.81 7.49
10:47 2 20.3 55 74,023 0 0 3.11 7.37 63.37 1.49 2 6.86 7.55
10:46 2 20.3 54 74,015 0.01 0 3.05 4.97 58.37 1.09 2 6.89 7.58
10:45 2 20.3 56 74,019 0.02 0 3.13 4.45 59 1.41 2 6.07 6.67
10:44 2 20.3 55 74,027 0 0 3.05 4.86 61.75 1.74 2 6.07 6.68
10:43 2 20.2 55 74,035 0 0 3.08 4.04 59.07 1.15 2 6.83 7.51
10:42 2 20.2 55 74,039 0.01 0 2.91 4.77 59.74 1.22 2.86 7.58 8.34
10:41 2 20.3 55 74,043 0 0 3.07 5.03 60.71 2.07 2 6.83 7.51
10:40 2 20.2 55 74,041 0.03 0 3.07 6.68 60.72 1.01 2.86 6.84 7.52
10:39 2 20.2 55 74,037 0.03 0 3.15 5.79 60.55 1.28 2 6.84 7.53
10:38 2 20.2 56 74,039 0.01 0 3.13 5.43 59.51 0.84 2 6.07 6.67
10:37 2 20.2 55 74,043 0.01 0 3.18 5.6 59.19 1.33 2.86 8.33 9.16
10:36 2 20.2 56 74,047 0 0 3.16 5.26 60.71 0.82 2 6.05 6.65
10:35 2 20.1 55 74,059 0 0 2.92 5.01 59.68 1.37 2 6.82 7.51
10:34 2 20.1 56 74,068 0 0 2.89 4.43 59.1 1.09 2.86 7.54 8.3
10:33 2 20 57 74,080 0 0 2.99 5.75 61.13 0.96 2 6 6.6
10:32 2 20 57 74,088 0 0 3.16 5.74 61.85 1.12 2.86 6.73 7.4
10:31 2 19.9 57 74,100 0.03 0 3.16 5.06 59.58 0.87 2 5.98 6.58